createdAt,value
2023-01-31T00:00:06.984Z,83.26
2023-01-31T00:01:06.993Z,83.37
2023-01-31T00:02:06.980Z,83.99
2023-01-31T00:03:06.989Z,84.09
2023-01-31T00:04:06.949Z,83.47
2023-01-31T00:05:06.936Z,83.99
2023-01-31T00:06:06.919Z,83.78
2023-01-31T00:07:06.935Z,84.61
2023-01-31T00:08:06.934Z,84.20
2023-01-31T00:09:06.912Z,83.58
2023-01-31T00:10:06.884Z,84.20
2023-01-31T00:11:06.874Z,84.20
2023-01-31T00:12:06.863Z,84.09
2023-01-31T00:13:06.856Z,83.89
2023-01-31T00:14:06.926Z,83.89
2023-01-31T00:15:06.859Z,84.09
2023-01-31T00:16:06.882Z,83.89
2023-01-31T00:17:06.820Z,83.78
2023-01-31T00:18:06.831Z,83.78
2023-01-31T00:19:06.801Z,83.47
2023-01-31T00:20:06.807Z,83.78
2023-01-31T00:21:06.782Z,84.61
2023-01-31T00:22:06.774Z,84.30
2023-01-31T00:23:06.756Z,84.41
2023-01-31T00:24:06.748Z,84.72
2023-01-31T00:25:06.763Z,84.61
2023-01-31T00:26:07.482Z,84.30
2023-01-31T00:27:06.823Z,83.68
2023-01-31T00:28:06.715Z,83.78
2023-01-31T00:29:06.701Z,83.78
2023-01-31T00:30:06.678Z,83.33
2023-01-31T00:31:06.756Z,83.06
2023-01-31T00:32:06.777Z,83.26
2023-01-31T00:33:06.684Z,83.06
2023-01-31T00:34:06.680Z,83.68
2023-01-31T00:35:06.631Z,84.61
2023-01-31T00:36:06.645Z,84.92
2023-01-31T00:37:06.653Z,84.58
2023-01-31T00:38:06.607Z,84.06
2023-01-31T00:39:06.621Z,82.71
2023-01-31T00:40:06.589Z,82.09
2023-01-31T00:41:06.622Z,81.88
2023-01-31T00:42:06.561Z,82.50
2023-01-31T00:43:06.561Z,82.54
2023-01-31T00:44:06.553Z,82.34
2023-01-31T00:45:06.539Z,82.44
2023-01-31T00:46:06.560Z,82.54
2023-01-31T00:47:06.550Z,82.44
2023-01-31T00:48:06.510Z,82.34
2023-01-31T00:49:06.527Z,82.58
2023-01-31T00:50:06.484Z,84.03
2023-01-31T00:51:06.498Z,83.68
2023-01-31T00:52:06.491Z,84.75
2023-01-31T00:53:06.489Z,84.51
2023-01-31T00:54:06.451Z,84.92
2023-01-31T00:55:06.455Z,83.58
2023-01-31T00:56:06.437Z,83.16
2023-01-31T00:57:06.438Z,82.17
2023-01-31T00:58:06.401Z,84.55
2023-01-31T00:59:06.395Z,84.13
2023-01-31T01:00:06.401Z,84.13
2023-01-31T01:01:06.463Z,82.79
2023-01-31T01:02:06.426Z,83.41
2023-01-31T01:03:06.368Z,83.51
2023-01-31T01:04:06.365Z,84.23
2023-01-31T01:05:06.372Z,85.06
2023-01-31T01:06:06.367Z,85.58
2023-01-31T01:07:06.329Z,84.55
2023-01-31T01:08:06.313Z,84.03
2023-01-31T01:09:06.303Z,82.58
2023-01-31T01:10:06.332Z,81.96
2023-01-31T01:11:06.280Z,82.17
2023-01-31T01:12:06.281Z,81.75
2023-01-31T01:13:06.262Z,81.96
2023-01-31T01:14:06.261Z,82.27
2023-01-31T01:15:06.255Z,82.51
2023-01-31T01:16:06.313Z,82.41
2023-01-31T01:17:06.254Z,82.51
2023-01-31T01:18:06.213Z,82.10
2023-01-31T01:19:06.205Z,82.31
2023-01-31T01:20:06.198Z,82.10
2023-01-31T01:21:06.199Z,83.45
2023-01-31T01:22:06.193Z,83.17
2023-01-31T01:23:06.180Z,83.69
2023-01-31T01:24:06.146Z,83.38
2023-01-31T01:25:06.136Z,83.69
2023-01-31T01:26:06.127Z,83.90
2023-01-31T01:27:06.160Z,84.94
2023-01-31T01:28:06.153Z,83.80
2023-01-31T01:29:06.106Z,83.80
2023-01-31T01:30:06.102Z,83.28
2023-01-31T01:31:06.095Z,83.48
2023-01-31T01:32:06.116Z,83.59
2023-01-31T01:33:06.065Z,83.48
2023-01-31T01:34:06.075Z,82.97
2023-01-31T01:35:06.045Z,83.69
2023-01-31T01:36:06.029Z,83.48
2023-01-31T01:37:06.101Z,83.80
2023-01-31T01:38:06.025Z,84.52
2023-01-31T01:39:06.008Z,84.83
2023-01-31T01:40:05.997Z,83.48
2023-01-31T01:41:05.982Z,83.45
2023-01-31T01:42:05.995Z,84.17
2023-01-31T01:43:05.985Z,83.24
2023-01-31T01:44:05.957Z,82.93
2023-01-31T01:45:05.959Z,81.48
2023-01-31T01:46:05.968Z,81.68
2023-01-31T01:47:05.958Z,82.93
2023-01-31T01:48:05.933Z,82.51
2023-01-31T01:49:05.910Z,82.93
2023-01-31T01:50:05.926Z,83.03
2023-01-31T01:51:05.911Z,82.72
2023-01-31T01:52:05.908Z,82.31
2023-01-31T01:53:05.868Z,82.93
2023-01-31T01:54:05.850Z,82.20
2023-01-31T01:55:05.844Z,82.62
2023-01-31T01:56:05.832Z,81.79
2023-01-31T01:57:05.853Z,82.31
2023-01-31T01:58:05.825Z,81.85
2023-01-31T01:59:05.824Z,81.37
2023-01-31T02:00:05.799Z,81.27
2023-01-31T02:01:05.859Z,82.62
2023-01-31T02:02:05.817Z,81.68
2023-01-31T02:03:06.578Z,81.89
2023-01-31T02:04:05.967Z,82.20
2023-01-31T02:05:05.745Z,81.68
2023-01-31T02:06:05.738Z,81.48
2023-01-31T02:07:06.583Z,81.16
2023-01-31T02:08:05.717Z,81.27
2023-01-31T02:09:05.725Z,81.79
2023-01-31T02:10:05.726Z,81.58
2023-01-31T02:11:05.752Z,81.89
2023-01-31T02:12:05.688Z,81.79
2023-01-31T02:13:05.753Z,83.03
2023-01-31T02:14:05.668Z,82.20
2023-01-31T02:15:05.657Z,81.89
2023-01-31T02:16:05.679Z,81.99
2023-01-31T02:17:05.678Z,81.99
2023-01-31T02:18:05.626Z,81.37
2023-01-31T02:19:05.611Z,81.48
2023-01-31T02:20:05.602Z,81.48
2023-01-31T02:21:05.610Z,81.89
2023-01-31T02:22:05.607Z,81.68
2023-01-31T02:23:05.623Z,82.20
2023-01-31T02:24:05.568Z,81.79
2023-01-31T02:25:05.642Z,82.41
2023-01-31T02:26:05.540Z,81.58
2023-01-31T02:27:05.569Z,82.10
2023-01-31T02:28:05.526Z,81.16
2023-01-31T02:29:05.509Z,82.10
2023-01-31T02:30:05.511Z,81.89
2023-01-31T02:31:05.539Z,81.68
2023-01-31T02:32:05.583Z,81.20
2023-01-31T02:33:05.485Z,81.93
2023-01-31T02:34:05.464Z,81.82
2023-01-31T02:35:05.451Z,82.55
2023-01-31T02:36:05.462Z,81.82
2023-01-31T02:37:05.467Z,82.65
2023-01-31T02:38:05.420Z,81.82
2023-01-31T02:39:05.430Z,81.72
2023-01-31T02:40:05.441Z,82.34
2023-01-31T02:41:05.396Z,82.55
2023-01-31T02:42:05.423Z,81.93
2023-01-31T02:43:05.377Z,81.93
2023-01-31T02:44:05.363Z,81.93
2023-01-31T02:45:05.413Z,82.24
2023-01-31T02:46:05.386Z,82.65
2023-01-31T02:47:05.377Z,82.24
2023-01-31T02:48:05.323Z,81.72
2023-01-31T02:49:05.321Z,81.41
2023-01-31T02:50:05.311Z,82.65
2023-01-31T02:51:05.292Z,81.30
2023-01-31T02:52:05.304Z,80.89
2023-01-31T02:53:05.299Z,80.79
2023-01-31T02:54:05.280Z,81.20
2023-01-31T02:55:05.250Z,81.41
2023-01-31T02:56:05.251Z,82.34
2023-01-31T02:57:05.262Z,81.20
2023-01-31T02:58:05.228Z,81.30
2023-01-31T02:59:05.239Z,81.20
2023-01-31T03:00:05.207Z,81.41
2023-01-31T03:01:05.285Z,81.62
2023-01-31T03:02:05.215Z,82.55
2023-01-31T03:03:05.207Z,81.51
2023-01-31T03:04:05.183Z,81.62
2023-01-31T03:05:05.164Z,80.99
2023-01-31T03:06:05.149Z,82.03
2023-01-31T03:07:05.160Z,81.62
2023-01-31T03:08:05.184Z,81.51
2023-01-31T03:09:05.120Z,81.93
2023-01-31T03:10:05.137Z,81.76
2023-01-31T03:11:05.157Z,81.76
2023-01-31T03:12:05.102Z,81.35
2023-01-31T03:13:05.102Z,81.45
2023-01-31T03:14:05.101Z,81.45
2023-01-31T03:15:05.058Z,81.24
2023-01-31T03:16:05.071Z,81.97
2023-01-31T03:17:05.094Z,81.45
2023-01-31T03:18:05.059Z,81.66
2023-01-31T03:19:05.044Z,81.82
2023-01-31T03:20:05.022Z,81.41
2023-01-31T03:21:05.059Z,81.66
2023-01-31T03:22:05.035Z,81.93
2023-01-31T03:23:05.001Z,81.66
2023-01-31T03:24:04.994Z,81.76
2023-01-31T03:25:04.973Z,82.39
2023-01-31T03:26:05.026Z,81.82
2023-01-31T03:27:04.941Z,81.97
2023-01-31T03:28:04.955Z,82.18
2023-01-31T03:29:04.951Z,81.35
2023-01-31T03:30:04.920Z,81.66
2023-01-31T03:31:05.031Z,82.59
2023-01-31T03:32:04.900Z,82.07
2023-01-31T03:33:04.876Z,82.55
2023-01-31T03:34:04.888Z,81.56
2023-01-31T03:35:04.892Z,82.28
2023-01-31T03:36:04.861Z,81.97
2023-01-31T03:37:04.848Z,82.28
2023-01-31T03:38:04.839Z,82.07
2023-01-31T03:39:04.844Z,81.66
2023-01-31T03:40:04.847Z,81.45
2023-01-31T03:41:04.841Z,81.56
2023-01-31T03:42:04.841Z,82.49
2023-01-31T03:43:04.804Z,82.70
2023-01-31T03:44:04.815Z,83.01
2023-01-31T03:45:04.764Z,82.80
2023-01-31T03:46:04.768Z,82.07
2023-01-31T03:47:04.752Z,82.49
2023-01-31T03:48:04.744Z,81.35
2023-01-31T03:49:04.753Z,82.07
2023-01-31T03:50:04.716Z,82.49
2023-01-31T03:51:04.713Z,83.01
2023-01-31T03:52:04.697Z,82.28
2023-01-31T03:53:04.687Z,82.28
2023-01-31T03:54:04.743Z,82.53
2023-01-31T03:55:04.763Z,82.53
2023-01-31T03:56:04.682Z,83.01
2023-01-31T03:57:04.646Z,82.11
2023-01-31T03:58:04.661Z,82.07
2023-01-31T03:59:04.655Z,81.70
2023-01-31T04:00:04.638Z,82.53
2023-01-31T04:01:04.617Z,82.32
2023-01-31T04:02:04.621Z,82.73
2023-01-31T04:03:04.703Z,82.32
2023-01-31T04:04:04.586Z,82.94
2023-01-31T04:05:04.611Z,82.94
2023-01-31T04:06:04.585Z,82.46
2023-01-31T04:07:04.557Z,82.98
2023-01-31T04:08:04.565Z,83.29
2023-01-31T04:09:04.597Z,83.36
2023-01-31T04:10:04.571Z,82.53
2023-01-31T04:11:04.534Z,83.77
2023-01-31T04:12:04.574Z,82.94
2023-01-31T04:13:04.516Z,82.73
2023-01-31T04:14:04.504Z,82.73
2023-01-31T04:15:04.513Z,82.63
2023-01-31T04:16:04.548Z,82.32
2023-01-31T04:17:04.465Z,83.04
2023-01-31T04:18:04.636Z,82.73
2023-01-31T04:19:04.488Z,83.04
2023-01-31T04:20:04.442Z,82.73
2023-01-31T04:21:04.427Z,83.15
2023-01-31T04:22:04.449Z,84.29
2023-01-31T04:23:04.419Z,83.04
2023-01-31T04:24:04.427Z,83.63
2023-01-31T04:25:04.397Z,82.28
2023-01-31T04:26:04.380Z,82.28
2023-01-31T04:27:04.342Z,82.70
2023-01-31T04:28:04.361Z,81.76
2023-01-31T04:29:04.343Z,83.42
2023-01-31T04:30:04.363Z,82.28
2023-01-31T04:31:04.501Z,82.65
2023-01-31T04:32:04.387Z,82.14
2023-01-31T04:33:04.302Z,82.03
2023-01-31T04:34:04.303Z,83.17
2023-01-31T04:35:04.303Z,81.20
2023-01-31T04:36:04.278Z,80.89
2023-01-31T04:37:04.272Z,81.41
2023-01-31T04:38:04.194Z,80.58
2023-01-31T04:39:04.270Z,80.27
2023-01-31T04:40:04.244Z,81.62
2023-01-31T04:41:04.219Z,81.62
2023-01-31T04:42:04.207Z,80.99
2023-01-31T04:43:04.194Z,80.47
2023-01-31T04:44:04.205Z,80.58
2023-01-31T04:45:04.197Z,80.47
2023-01-31T04:46:04.194Z,81.04
2023-01-31T04:47:04.206Z,80.73
2023-01-31T04:48:04.194Z,81.87
2023-01-31T04:49:04.144Z,82.80
2023-01-31T04:50:04.145Z,81.35
2023-01-31T04:51:04.112Z,81.24
2023-01-31T04:52:04.108Z,80.00
2023-01-31T04:53:04.168Z,80.10
2023-01-31T04:54:04.095Z,82.39
2023-01-31T04:55:04.077Z,82.70
2023-01-31T04:56:04.078Z,83.32
2023-01-31T04:57:04.092Z,83.53
2023-01-31T04:58:06.616Z,81.66
2023-01-31T04:59:04.051Z,82.14
2023-01-31T05:00:04.084Z,82.03
2023-01-31T05:01:04.126Z,81.93
2023-01-31T05:02:04.033Z,81.51
2023-01-31T05:03:04.057Z,80.37
2023-01-31T05:04:03.994Z,80.16
2023-01-31T05:05:04.008Z,81.30
2023-01-31T05:06:03.974Z,81.82
2023-01-31T05:07:03.957Z,80.79
2023-01-31T05:08:03.972Z,79.34
2023-01-31T05:09:03.969Z,80.00
2023-01-31T05:10:03.959Z,80.10
2023-01-31T05:11:04.591Z,80.10
2023-01-31T05:12:03.915Z,80.97
2023-01-31T05:13:03.906Z,81.70
2023-01-31T05:14:03.891Z,82.73
2023-01-31T05:15:03.906Z,83.67
2023-01-31T05:16:04.499Z,81.18
2023-01-31T05:17:04.472Z,83.67
2023-01-31T05:18:04.540Z,82.90
2023-01-31T05:19:04.270Z,82.39
2023-01-31T05:20:04.102Z,82.28
2023-01-31T05:21:04.024Z,81.87
2023-01-31T05:22:03.978Z,81.45
2023-01-31T05:23:03.907Z,81.24
2023-01-31T05:24:03.867Z,82.28
2023-01-31T05:25:03.866Z,80.83
2023-01-31T05:26:03.816Z,80.93
2023-01-31T05:27:03.757Z,81.70
2023-01-31T05:28:03.807Z,81.38
2023-01-31T05:29:03.759Z,83.04
2023-01-31T05:30:04.245Z,83.77
2023-01-31T05:31:04.081Z,82.80
2023-01-31T05:32:04.250Z,81.45
2023-01-31T05:33:03.904Z,81.97
2023-01-31T05:34:04.159Z,81.04
2023-01-31T05:35:03.743Z,82.32
2023-01-31T05:36:03.837Z,82.80
2023-01-31T05:37:03.813Z,82.94
2023-01-31T05:38:03.668Z,82.59
2023-01-31T05:39:03.679Z,82.28
2023-01-31T05:40:03.664Z,82.32
2023-01-31T05:41:03.663Z,83.63
2023-01-31T05:42:03.617Z,82.90
2023-01-31T05:43:03.602Z,83.01
2023-01-31T05:44:03.709Z,81.76
2023-01-31T05:45:03.599Z,82.01
2023-01-31T05:46:03.961Z,83.25
2023-01-31T05:47:03.912Z,82.80
2023-01-31T05:48:03.645Z,83.73
2023-01-31T05:49:03.558Z,83.11
2023-01-31T05:50:03.542Z,82.80
2023-01-31T05:51:03.570Z,82.49
2023-01-31T05:52:03.559Z,82.18
2023-01-31T05:53:03.555Z,82.28
2023-01-31T05:54:03.495Z,82.34
2023-01-31T05:55:03.510Z,82.18
2023-01-31T05:56:03.503Z,81.87
2023-01-31T05:57:03.493Z,82.49
2023-01-31T05:58:03.458Z,81.45
2023-01-31T05:59:03.453Z,82.18
2023-01-31T06:00:03.448Z,82.39
2023-01-31T06:01:03.422Z,82.07
2023-01-31T06:02:03.485Z,81.28
2023-01-31T06:03:03.489Z,83.25
2023-01-31T06:04:03.420Z,82.07
2023-01-31T06:05:03.387Z,83.42
2023-01-31T06:06:03.378Z,82.28
2023-01-31T06:07:03.368Z,82.18
2023-01-31T06:08:03.368Z,82.28
2023-01-31T06:09:03.352Z,81.38
2023-01-31T06:10:03.355Z,81.28
2023-01-31T06:11:03.304Z,82.01
2023-01-31T06:12:03.325Z,82.63
2023-01-31T06:13:03.261Z,82.63
2023-01-31T06:14:03.318Z,82.11
2023-01-31T06:15:03.258Z,83.56
2023-01-31T06:16:03.310Z,81.70
2023-01-31T06:17:03.302Z,80.97
2023-01-31T06:18:03.300Z,81.59
2023-01-31T06:19:03.249Z,82.42
2023-01-31T06:20:03.268Z,81.49
2023-01-31T06:21:03.205Z,82.21
2023-01-31T06:22:03.169Z,81.70
2023-01-31T06:23:03.248Z,81.59
2023-01-31T06:24:03.236Z,82.42
2023-01-31T06:25:03.232Z,82.42
2023-01-31T06:26:03.203Z,82.11
2023-01-31T06:27:03.126Z,81.80
2023-01-31T06:28:03.146Z,82.11
2023-01-31T06:29:03.155Z,82.11
2023-01-31T06:30:03.147Z,81.80
2023-01-31T06:31:03.368Z,82.42
2023-01-31T06:32:03.171Z,82.21
2023-01-31T06:33:03.112Z,82.01
2023-01-31T06:34:03.143Z,82.70
2023-01-31T06:35:03.096Z,83.32
2023-01-31T06:36:03.055Z,81.51
2023-01-31T06:37:03.013Z,81.62
2023-01-31T06:38:03.015Z,81.62
2023-01-31T06:39:03.125Z,81.30
2023-01-31T06:40:02.988Z,81.82
2023-01-31T06:41:02.978Z,81.20
2023-01-31T06:42:02.989Z,81.30
2023-01-31T06:43:02.981Z,81.72
2023-01-31T06:44:02.974Z,80.83
2023-01-31T06:45:02.980Z,81.45
2023-01-31T06:46:03.002Z,82.28
2023-01-31T06:47:02.944Z,81.45
2023-01-31T06:48:03.023Z,82.18
2023-01-31T06:49:05.642Z,80.62
2023-01-31T06:50:02.920Z,82.11
2023-01-31T06:51:02.883Z,81.90
2023-01-31T06:52:02.911Z,81.90
2023-01-31T06:53:02.860Z,82.53
2023-01-31T06:54:02.880Z,82.53
2023-01-31T06:55:02.856Z,81.90
2023-01-31T06:56:02.851Z,83.77
2023-01-31T06:57:02.884Z,83.04
2023-01-31T06:58:02.820Z,83.56
2023-01-31T06:59:02.846Z,82.49
2023-01-31T07:00:02.838Z,81.18
2023-01-31T07:01:02.796Z,82.53
2023-01-31T07:02:02.797Z,82.18
2023-01-31T07:03:02.805Z,81.18
2023-01-31T07:04:02.758Z,81.07
2023-01-31T07:05:02.898Z,82.84
2023-01-31T07:06:02.748Z,81.80
2023-01-31T07:07:02.737Z,82.01
2023-01-31T07:08:02.733Z,82.11
2023-01-31T07:09:02.742Z,81.63
2023-01-31T07:10:02.755Z,82.77
2023-01-31T07:11:02.693Z,82.63
2023-01-31T07:12:02.697Z,81.90
2023-01-31T07:13:02.681Z,82.63
2023-01-31T07:14:02.667Z,83.87
2023-01-31T07:15:02.697Z,83.15
2023-01-31T07:16:02.719Z,81.80
2023-01-31T07:17:02.662Z,82.32
2023-01-31T07:18:02.647Z,82.32
2023-01-31T07:19:02.674Z,82.11
2023-01-31T07:20:02.620Z,81.59
2023-01-31T07:21:02.648Z,82.11
2023-01-31T07:22:02.586Z,82.84
2023-01-31T07:23:02.633Z,82.63
2023-01-31T07:24:02.550Z,82.73
2023-01-31T07:25:02.567Z,82.73
2023-01-31T07:26:02.558Z,83.04
2023-01-31T07:27:02.551Z,82.21
2023-01-31T07:28:02.523Z,82.42
2023-01-31T07:29:02.514Z,82.53
2023-01-31T07:30:02.580Z,82.73
2023-01-31T07:31:02.524Z,82.73
2023-01-31T07:32:02.532Z,81.38
2023-01-31T07:33:02.487Z,81.59
2023-01-31T07:34:02.515Z,82.53
2023-01-31T07:35:02.453Z,82.32
2023-01-31T07:36:02.469Z,81.59
2023-01-31T07:37:02.451Z,81.18
2023-01-31T07:38:02.427Z,82.42
2023-01-31T07:39:02.428Z,81.59
2023-01-31T07:40:02.430Z,81.49
2023-01-31T07:41:02.447Z,81.90
2023-01-31T07:42:02.392Z,81.90
2023-01-31T07:43:02.370Z,82.18
2023-01-31T07:44:02.361Z,81.35
2023-01-31T07:45:13.220Z,82.70
2023-01-31T07:46:02.468Z,81.45
2023-01-31T07:47:02.386Z,81.97
2023-01-31T07:48:02.310Z,81.14
2023-01-31T07:49:02.319Z,81.14
2023-01-31T07:50:02.298Z,81.93
2023-01-31T07:51:02.317Z,81.72
2023-01-31T07:52:02.321Z,80.68
2023-01-31T07:53:02.265Z,80.37
2023-01-31T07:54:02.273Z,81.82
2023-01-31T07:55:02.265Z,80.65
2023-01-31T07:56:02.271Z,80.33
2023-01-31T07:57:02.254Z,79.30
2023-01-31T07:58:02.265Z,79.65
2023-01-31T07:59:02.206Z,79.44
2023-01-31T08:00:02.237Z,80.58
2023-01-31T08:01:02.250Z,79.96
2023-01-31T08:02:02.218Z,81.20
2023-01-31T08:03:02.218Z,80.37
2023-01-31T08:04:18.271Z,81.20
2023-01-31T08:05:02.342Z,80.75
2023-01-31T08:06:02.169Z,79.96
2023-01-31T08:07:02.231Z,79.85
2023-01-31T08:08:02.137Z,79.34
2023-01-31T08:09:02.112Z,79.75
2023-01-31T08:10:02.146Z,79.65
2023-01-31T08:11:02.169Z,79.44
2023-01-31T08:12:02.153Z,79.30
2023-01-31T08:13:02.166Z,79.65
2023-01-31T08:14:02.081Z,79.61
2023-01-31T08:15:02.081Z,80.23
2023-01-31T08:16:02.216Z,79.51
2023-01-31T08:17:02.111Z,79.34
2023-01-31T08:18:04.431Z,80.16
2023-01-31T08:19:02.044Z,80.99
2023-01-31T08:20:02.018Z,80.73
2023-01-31T08:21:02.047Z,82.07
2023-01-31T08:22:02.045Z,83.42
2023-01-31T08:23:02.031Z,81.72
2023-01-31T08:24:02.003Z,81.10
2023-01-31T08:25:01.954Z,80.99
2023-01-31T08:26:02.056Z,81.48
2023-01-31T08:27:01.942Z,81.68
2023-01-31T08:28:01.932Z,82.31
2023-01-31T08:29:01.944Z,80.82
2023-01-31T08:30:01.905Z,79.92
2023-01-31T08:31:08.599Z,78.89
2023-01-31T08:32:02.036Z,79.44
2023-01-31T08:33:01.902Z,81.51
2023-01-31T08:34:01.865Z,81.72
2023-01-31T08:35:01.910Z,82.24
2023-01-31T08:36:01.880Z,81.51
2023-01-31T08:37:02.009Z,82.24
2023-01-31T08:38:15.736Z,81.45
2023-01-31T08:39:01.922Z,81.87
2023-01-31T08:40:01.812Z,82.07
2023-01-31T08:41:01.829Z,82.70
2023-01-31T08:42:01.831Z,83.53
2023-01-31T08:43:01.826Z,82.70
2023-01-31T08:44:04.527Z,82.07
2023-01-31T08:45:01.781Z,82.94
2023-01-31T08:46:01.787Z,82.84
2023-01-31T08:47:01.871Z,84.05
2023-01-31T08:48:01.798Z,83.11
2023-01-31T08:49:01.769Z,82.70
2023-01-31T08:50:01.725Z,82.39
2023-01-31T08:51:01.716Z,81.72
2023-01-31T08:52:01.713Z,82.45
2023-01-31T08:53:01.696Z,81.30
2023-01-31T08:54:01.668Z,81.82
2023-01-31T08:55:01.667Z,82.65
2023-01-31T08:56:01.680Z,82.65
2023-01-31T08:57:01.785Z,82.03
2023-01-31T08:58:01.741Z,82.24
2023-01-31T08:59:01.651Z,82.97
2023-01-31T09:00:01.663Z,82.03
2023-01-31T09:01:01.659Z,81.82
2023-01-31T09:02:01.597Z,82.65
2023-01-31T09:03:01.652Z,83.28
2023-01-31T09:04:01.599Z,81.72
2023-01-31T09:05:01.592Z,81.62
2023-01-31T09:06:01.571Z,81.41
2023-01-31T09:07:01.578Z,83.80
2023-01-31T09:08:01.530Z,81.89
2023-01-31T09:09:01.564Z,81.51
2023-01-31T09:10:01.521Z,82.24
2023-01-31T09:11:01.560Z,81.93
2023-01-31T09:12:01.531Z,82.14
2023-01-31T09:13:01.516Z,82.03
2023-01-31T09:14:01.495Z,82.76
2023-01-31T09:15:01.468Z,82.76
2023-01-31T09:16:02.814Z,82.72
2023-01-31T09:17:01.566Z,82.51
2023-01-31T09:18:01.476Z,82.62
2023-01-31T09:19:01.451Z,82.27
2023-01-31T09:20:01.413Z,81.34
2023-01-31T09:21:01.400Z,81.34
2023-01-31T09:22:01.404Z,81.34
2023-01-31T09:23:01.416Z,81.23
2023-01-31T09:24:01.391Z,81.44
2023-01-31T09:25:01.394Z,80.92
2023-01-31T09:26:01.384Z,80.92
2023-01-31T09:27:01.370Z,81.75
2023-01-31T09:28:01.365Z,81.23
2023-01-31T09:29:01.338Z,81.13
2023-01-31T09:30:01.333Z,81.09
2023-01-31T09:31:01.391Z,80.61
2023-01-31T09:32:01.346Z,81.34
2023-01-31T09:33:01.287Z,82.06
2023-01-31T09:34:01.306Z,81.96
2023-01-31T09:35:01.289Z,81.44
2023-01-31T09:36:01.281Z,81.54
2023-01-31T09:37:01.297Z,81.02
2023-01-31T09:38:01.510Z,81.34
2023-01-31T09:39:01.235Z,81.99
2023-01-31T09:40:01.234Z,82.31
2023-01-31T09:41:01.216Z,82.51
2023-01-31T09:42:01.211Z,83.03
2023-01-31T09:43:02.485Z,83.34
2023-01-31T09:44:01.177Z,82.72
2023-01-31T09:45:01.185Z,82.82
2023-01-31T09:46:01.159Z,83.03
2023-01-31T09:47:01.347Z,83.65
2023-01-31T09:48:01.144Z,82.93
2023-01-31T09:49:01.163Z,83.34
2023-01-31T09:50:01.122Z,82.79
2023-01-31T09:51:01.116Z,82.58
2023-01-31T09:52:01.125Z,82.72
2023-01-31T09:53:01.095Z,83.62
2023-01-31T09:54:01.133Z,82.89
2023-01-31T09:55:01.101Z,82.48
2023-01-31T09:56:01.056Z,82.27
2023-01-31T09:57:01.093Z,81.85
2023-01-31T09:58:01.040Z,82.37
2023-01-31T09:59:01.075Z,81.71
2023-01-31T10:00:01.043Z,81.71
2023-01-31T10:01:01.143Z,82.13
2023-01-31T10:02:01.013Z,82.44
2023-01-31T10:03:01.066Z,82.34
2023-01-31T10:04:01.090Z,82.23
2023-01-31T10:05:01.008Z,81.30
2023-01-31T10:06:00.970Z,81.30
2023-01-31T10:07:00.972Z,82.03
2023-01-31T10:08:00.970Z,82.13
2023-01-31T10:09:01.688Z,81.51
2023-01-31T10:10:00.918Z,82.37
2023-01-31T10:11:00.930Z,81.85
2023-01-31T10:12:00.909Z,82.06
2023-01-31T10:13:00.955Z,82.37
2023-01-31T10:14:00.891Z,82.48
2023-01-31T10:15:00.916Z,82.37
2023-01-31T10:16:00.880Z,82.79
2023-01-31T10:17:00.887Z,82.58
2023-01-31T10:18:00.848Z,83.00
2023-01-31T10:19:00.871Z,83.83
2023-01-31T10:20:00.821Z,83.16
2023-01-31T10:21:00.918Z,82.23
2023-01-31T10:22:00.802Z,81.68
2023-01-31T10:23:00.798Z,81.26
2023-01-31T10:24:00.798Z,80.54
2023-01-31T10:25:00.798Z,80.33
2023-01-31T10:26:00.780Z,80.64
2023-01-31T10:27:00.929Z,80.43
2023-01-31T10:28:00.760Z,80.33
2023-01-31T10:29:01.077Z,79.91
2023-01-31T10:30:00.745Z,80.02
2023-01-31T10:31:00.822Z,80.22
2023-01-31T10:32:00.785Z,80.54
2023-01-31T10:33:00.701Z,80.33
2023-01-31T10:34:00.730Z,80.05
2023-01-31T10:35:00.701Z,80.99
2023-01-31T10:36:00.704Z,81.09
2023-01-31T10:37:00.706Z,80.36
2023-01-31T10:38:00.645Z,80.78
2023-01-31T10:39:00.651Z,80.78
2023-01-31T10:40:00.675Z,80.57
2023-01-31T10:41:00.673Z,81.09
2023-01-31T10:42:00.625Z,80.36
2023-01-31T10:43:00.640Z,80.26
2023-01-31T10:44:00.622Z,80.88
2023-01-31T10:45:00.583Z,80.26
2023-01-31T10:46:00.634Z,80.57
2023-01-31T10:47:00.557Z,80.78
2023-01-31T10:48:00.573Z,80.95
2023-01-31T10:49:00.579Z,80.12
2023-01-31T10:50:00.582Z,79.98
2023-01-31T10:51:00.569Z,79.98
2023-01-31T10:52:00.517Z,79.77
2023-01-31T10:53:00.566Z,78.74
2023-01-31T10:54:00.497Z,78.29
2023-01-31T10:55:00.507Z,78.08
2023-01-31T10:56:00.502Z,78.19
2023-01-31T10:57:00.461Z,78.19
2023-01-31T10:58:00.486Z,78.25
2023-01-31T10:59:00.448Z,77.87
2023-01-31T11:00:00.451Z,78.08
2023-01-31T11:01:00.495Z,77.56
2023-01-31T11:02:00.516Z,77.77
2023-01-31T11:03:00.403Z,78.60
2023-01-31T11:04:00.439Z,77.98
2023-01-31T11:05:00.555Z,77.77
2023-01-31T11:06:00.372Z,78.12
2023-01-31T11:07:00.381Z,78.64
2023-01-31T11:08:00.375Z,78.33
2023-01-31T11:09:00.360Z,78.85
2023-01-31T11:10:00.365Z,79.67
2023-01-31T11:11:00.361Z,79.67
2023-01-31T11:12:00.317Z,78.95
2023-01-31T11:13:00.308Z,78.78
2023-01-31T11:14:00.316Z,79.47
2023-01-31T11:15:00.337Z,79.57
2023-01-31T11:16:00.286Z,79.16
2023-01-31T11:17:00.295Z,78.64
2023-01-31T11:18:00.278Z,78.64
2023-01-31T11:19:00.282Z,78.22
2023-01-31T11:20:00.260Z,78.33
2023-01-31T11:21:00.213Z,78.43
2023-01-31T11:22:00.338Z,78.64
2023-01-31T11:23:00.202Z,78.64
2023-01-31T11:24:00.212Z,78.33
2023-01-31T11:25:00.215Z,78.43
2023-01-31T11:26:00.182Z,78.33
2023-01-31T11:27:00.156Z,78.74
2023-01-31T11:28:00.164Z,78.53
2023-01-31T11:29:00.284Z,79.26
2023-01-31T11:30:00.598Z,79.36
2023-01-31T11:31:00.194Z,78.95
2023-01-31T11:32:00.255Z,78.95
2023-01-31T11:33:00.116Z,78.81
2023-01-31T11:34:00.140Z,77.87
2023-01-31T11:35:00.176Z,77.67
2023-01-31T11:36:00.129Z,78.91
2023-01-31T11:37:00.103Z,77.87
2023-01-31T11:38:00.148Z,78.19
2023-01-31T11:39:00.165Z,78.12
2023-01-31T11:40:00.275Z,78.02
2023-01-31T11:41:00.024Z,78.64
2023-01-31T11:42:00.131Z,78.43
2023-01-31T11:43:00.184Z,78.33
2023-01-31T11:44:00.233Z,78.74
2023-01-31T11:45:00.128Z,79.57
2023-01-31T11:46:00.104Z,79.26
2023-01-31T11:46:59.996Z,78.60
2023-01-31T11:47:59.988Z,78.60
2023-01-31T11:48:59.947Z,78.08
2023-01-31T11:49:59.936Z,77.94
2023-01-31T11:50:59.943Z,78.05
2023-01-31T11:51:59.925Z,77.70
2023-01-31T11:52:59.900Z,77.08
2023-01-31T11:53:59.956Z,76.56
2023-01-31T11:54:59.902Z,76.36
2023-01-31T11:55:59.883Z,76.56
2023-01-31T11:56:59.949Z,76.98
2023-01-31T11:57:59.909Z,77.22
2023-01-31T11:58:59.845Z,77.53
2023-01-31T11:59:59.855Z,77.43
2023-01-31T12:00:59.833Z,77.22
2023-01-31T12:01:59.925Z,78.15
2023-01-31T12:02:59.834Z,77.22
2023-01-31T12:04:03.608Z,77.33
2023-01-31T12:04:59.795Z,77.74
2023-01-31T12:05:59.802Z,77.53
2023-01-31T12:06:59.806Z,77.53
2023-01-31T12:07:59.765Z,77.50
2023-01-31T12:09:00.041Z,77.50
2023-01-31T12:09:59.768Z,77.08
2023-01-31T12:10:59.744Z,77.70
2023-01-31T12:11:59.763Z,77.29
2023-01-31T12:13:12.642Z,76.87
2023-01-31T12:13:59.700Z,77.08
2023-01-31T12:14:59.684Z,77.81
2023-01-31T12:15:59.691Z,77.08
2023-01-31T12:16:59.745Z,77.29
2023-01-31T12:17:59.683Z,77.29
2023-01-31T12:18:59.684Z,77.60
2023-01-31T12:19:59.651Z,77.70
2023-01-31T12:20:59.621Z,77.84
2023-01-31T12:21:59.677Z,78.15
2023-01-31T12:22:59.648Z,78.56
2023-01-31T12:23:59.618Z,78.46
2023-01-31T12:24:59.611Z,78.36
2023-01-31T12:25:59.653Z,78.46
2023-01-31T12:26:59.602Z,78.67
2023-01-31T12:27:59.571Z,78.98
2023-01-31T12:28:59.618Z,78.77
2023-01-31T12:29:59.619Z,79.08
2023-01-31T12:30:59.685Z,79.19
2023-01-31T12:31:59.520Z,79.49
2023-01-31T12:32:59.574Z,79.60
2023-01-31T12:33:59.506Z,79.29
2023-01-31T12:35:02.957Z,79.15
2023-01-31T12:35:59.503Z,78.32
2023-01-31T12:36:59.497Z,78.88
2023-01-31T12:37:59.494Z,79.08
2023-01-31T12:38:59.542Z,78.98
2023-01-31T12:39:59.451Z,79.08
2023-01-31T12:40:59.421Z,79.08
2023-01-31T12:41:59.430Z,79.08
2023-01-31T12:42:59.441Z,79.70
2023-01-31T12:43:59.430Z,79.29
2023-01-31T12:44:59.399Z,79.19
2023-01-31T12:45:59.445Z,79.39
2023-01-31T12:47:11.951Z,79.80
2023-01-31T12:47:59.382Z,79.70
2023-01-31T12:48:59.431Z,79.39
2023-01-31T12:49:59.353Z,79.39
2023-01-31T12:50:59.329Z,79.39
2023-01-31T12:51:59.337Z,79.56